Time;durP1;ratioP1;P1;durP2;ratioP2;P2;SDS_P1;SDS_P2;PMS_P1;PMS_P2;Temp;Humidity;BMP_temperature;BMP_pressure;BME280_temperature;BME280_humidity;BME280_pressure;Samples;Min_cycle;Max_cycle;Signal;HPM_P1;HPM_P2
2021/11/25 00:01:14;;;;;;;22.17;12.18;;;2.30;99.90;;;1.25;100.00;97141.84;5041615;28;20129;-71
2021/11/25 00:03:41;;;;;;;22.70;13.35;;;2.30;99.90;;;1.30;100.00;97140.91;5050150;28;20044;-70
2021/11/25 00:06:09;;;;;;;21.33;12.20;;;2.30;99.90;;;1.30;100.00;97143.47;5054747;28;20087;-70
2021/11/25 00:08:36;;;;;;;24.48;12.73;;;2.40;99.90;;;1.37;100.00;97133.16;5055841;28;20123;-70
2021/11/25 00:11:04;;;;;;;19.20;11.13;;;2.40;99.90;;;1.26;100.00;97137.56;5051550;28;20088;-69
2021/11/25 00:13:31;;;;;;;24.88;14.13;;;2.40;99.90;;;1.25;100.00;97130.75;5047530;28;20124;-70
2021/11/25 00:15:58;;;;;;;25.90;14.68;;;2.40;99.90;;;1.04;100.00;97140.38;5043867;28;20084;-70
2021/11/25 00:18:25;;;;;;;24.70;14.50;;;2.30;99.90;;;1.16;100.00;97125.75;5046990;28;20094;-70
2021/11/25 00:20:53;;;;;;;28.75;15.98;;;2.30;99.90;;;1.04;100.00;97125.03;5048752;28;20098;-71
2021/11/25 00:23:20;;;;;;;29.48;16.10;;;2.30;99.90;;;1.02;100.00;97115.69;5047943;28;20087;-69
2021/11/25 00:25:47;;;;;;;25.17;15.07;;;2.30;99.90;;;0.93;100.00;97121.75;5047852;28;20049;-71
2021/11/25 00:28:15;;;;;;;24.42;15.35;;;2.30;99.90;;;1.00;100.00;97115.75;5048639;28;20424;-70
2021/11/25 00:30:42;;;;;;;28.75;14.10;;;2.20;99.90;;;1.03;100.00;97112.28;5049099;28;20041;-71
2021/11/25 00:33:09;;;;;;;27.25;15.80;;;2.20;99.90;;;0.73;100.00;97114.34;5048019;28;20124;-72
2021/11/25 00:35:36;;;;;;;31.83;17.17;;;2.10;99.90;;;0.54;100.00;97106.00;5047613;28;20485;-70
2021/11/25 00:38:03;;;;;;;31.77;18.15;;;1.90;99.90;;;0.40;100.00;97106.16;5049495;28;20129;-69
2021/11/25 00:40:30;;;;;;;28.40;16.25;;;1.70;99.90;;;0.50;100.00;97112.03;5044840;28;20076;-70
2021/11/25 00:42:57;;;;;;;37.42;19.55;;;1.70;99.90;;;0.45;100.00;97106.09;5046991;28;20133;-71
2021/11/25 00:45:24;;;;;;;28.73;17.17;;;1.70;99.90;;;0.42;100.00;97103.59;5048344;28;20128;-71
2021/11/25 00:47:51;;;;;;;29.85;16.75;;;1.70;99.90;;;0.43;100.00;97102.72;5048429;28;20053;-71
2021/11/25 00:50:20;;;;;;;31.10;17.60;;;;;;;0.44;100.00;97101.03;5048253;28;20138;-70
2021/11/25 00:52:48;;;;;;;32.60;18.08;;;1.70;99.90;;;0.40;100.00;97101.06;5045390;28;20144;-71
2021/11/25 00:55:15;;;;;;;32.55;17.20;;;1.60;99.90;;;0.38;100.00;97100.22;5047563;28;20084;-70
2021/11/25 00:57:43;;;;;;;32.35;18.08;;;1.60;99.90;;;0.20;100.00;97095.28;5047977;28;20087;-69
2021/11/25 01:00:18;;;;;;;30.67;17.50;;;1.60;99.90;;;0.30;100.00;97091.81;5045537;28;20080;-71
2021/11/25 01:02:46;;;;;;;32.30;17.58;;;1.50;99.90;;;0.27;100.00;97099.47;5047722;28;20473;-70
2021/11/25 01:05:14;;;;;;;35.63;19.63;;;1.50;99.90;;;0.22;100.00;97098.69;5045004;28;20048;-69
2021/11/25 01:07:42;;;;;;;37.83;20.08;;;1.50;99.90;;;0.07;100.00;97097.13;5047027;28;20080;-69
2021/11/25 01:10:12;;;;;;;37.33;19.17;;;;;;;0.13;100.00;97098.75;5048547;28;20079;-69
2021/11/25 01:12:40;;;;;;;38.35;20.02;;;;;;;0.12;100.00;97099.63;5047358;28;20091;-69
2021/11/25 01:15:11;;;;;;;33.28;18.73;;;1.40;99.90;;;0.20;100.00;97095.28;5045901;28;20213;-69
2021/11/25 01:17:39;;;;;;;33.25;18.95;;;1.50;99.90;;;0.25;100.00;97101.22;5030172;28;20080;-70
2021/11/25 01:20:15;;;;;;;34.53;18.35;;;1.50;99.90;;;0.31;100.00;97100.31;5032020;28;20071;-69
2021/11/25 01:22:44;;;;;;;35.08;19.02;;;1.50;99.90;;;0.45;100.00;97098.44;5050536;28;20070;-70
2021/11/25 01:25:11;;;;;;;28.90;16.48;;;1.70;99.90;;;0.45;100.00;97106.09;5049546;28;20109;-69
2021/11/25 01:27:38;;;;;;;28.92;16.23;;;1.70;99.90;;;0.48;100.00;97107.78;5050041;28;20136;-70
2021/11/25 01:30:08;;;;;;;31.05;17.35;;;1.80;99.90;;;0.43;100.00;97115.50;5052198;28;20135;-71
2021/11/25 01:32:35;;;;;;;32.20;17.42;;;1.80;99.90;;;0.41;100.00;97112.09;5056388;28;20052;-71
2021/11/25 01:35:04;;;;;;;32.78;18.55;;;1.60;99.90;;;0.19;100.00;97114.88;5061820;28;20091;-71
2021/11/25 01:37:33;;;;;;;27.88;15.13;;;1.60;99.90;;;0.32;100.00;97120.72;5058234;28;20131;-70
2021/11/25 01:40:00;;;;;;;31.73;17.73;;;1.60;99.90;;;0.31;100.00;97119.00;5060385;28;20044;-70
2021/11/25 01:42:27;;;;;;;34.05;18.15;;;1.60;99.90;;;0.16;100.00;97122.56;5061353;28;20132;-70
2021/11/25 01:44:54;;;;;;;29.00;16.50;;;1.50;99.90;;;0.21;100.00;97114.88;5058666;28;20136;-69
2021/11/25 01:47:20;;;;;;;27.50;15.32;;;1.40;99.90;;;0.40;100.00;97111.25;5068488;28;20128;-70
2021/11/25 01:49:48;;;;;;;29.63;17.60;;;1.50;99.90;;;0.25;100.00;97105.47;5051840;28;20490;-69
2021/11/25 01:52:15;;;;;;;24.67;14.57;;;1.50;99.90;;;0.41;100.00;97101.88;5049754;28;20076;-69
2021/11/25 01:54:42;;;;;;;26.88;15.95;;;1.60;99.90;;;0.40;100.00;97102.75;5040695;28;20131;-69
2021/11/25 01:57:09;;;;;;;32.90;18.08;;;1.60;99.90;;;0.31;100.00;97110.50;5070172;28;20521;-71
2021/11/25 01:59:37;;;;;;;33.85;18.90;;;1.50;99.90;;;0.16;100.00;97104.69;5052530;28;20045;-69
2021/11/25 02:02:06;;;;;;;31.52;17.55;;;1.50;99.90;;;0.19;100.00;97103.81;5059567;28;20098;-70
2021/11/25 02:04:35;;;;;;;28.92;16.17;;;1.40;99.90;;;0.35;100.00;97095.16;5049866;28;20049;-71
2021/11/25 02:07:03;;;;;;;33.40;18.05;;;1.50;99.90;;;0.35;100.00;97091.75;5051201;28;20136;-71
2021/11/25 02:09:30;;;;;;;26.73;15.10;;;1.60;99.90;;;0.36;100.00;97090.88;5050141;28;20049;-71
2021/11/25 02:11:57;;;;;;;33.92;18.10;;;1.60;99.90;;;0.22;100.00;97091.03;5033046;28;20140;-70
2021/11/25 02:14:24;;;;;;;29.02;16.08;;;1.60;99.90;;;0.07;100.00;97093.69;5032649;28;20569;-70
2021/11/25 02:16:52;;;;;;;25.40;15.27;;;1.50;99.90;;;0.46;100.00;97095.06;5041517;28;20102;-70
2021/11/25 02:19:21;;;;;;;24.38;14.13;;;1.60;99.90;;;0.43;100.00;97089.13;5050572;28;20499;-71
2021/11/25 02:21:49;;;;;;;31.65;18.10;;;1.60;99.90;;;0.53;100.00;97090.72;5034436;28;20099;-70
2021/11/25 02:24:17;;;;;;;32.35;18.67;;;1.60;99.90;;;0.32;100.00;97089.22;5058560;28;20584;-70
2021/11/25 02:26:44;;;;;;;36.08;19.92;;;1.60;99.90;;;0.27;100.00;97080.75;5049152;28;20151;-70
2021/11/25 02:29:11;;;;;;;36.03;19.08;;;1.60;99.90;;;0.15;100.00;97081.72;5047261;28;20553;-71
2021/11/25 02:31:39;;;;;;;32.00;18.40;;;1.40;99.90;;;0.23;100.00;97081.66;5070942;28;20048;-71
2021/11/25 02:34:06;;;;;;;38.30;19.80;;;1.50;99.90;;;0.22;100.00;97078.25;5058665;28;20077;-71
2021/11/25 02:36:33;;;;;;;36.40;20.75;;;1.50;99.90;;;0.08;100.00;97075.00;5045590;28;20079;-69
2021/11/25 02:39:00;;;;;;;31.42;18.50;;;1.40;99.90;;;0.02;100.00;97059.72;5035294;28;20041;-71
2021/11/25 02:41:28;;;;;;;33.58;17.95;;;1.30;99.90;;;0.10;100.00;97063.06;5051974;28;20514;-71
2021/11/25 02:43:56;;;;;;;32.58;19.27;;;1.30;99.90;;;0.02;100.00;97058.03;5051863;28;20049;-70
2021/11/25 02:46:23;;;;;;;33.05;18.25;;;1.30;99.90;;;0.09;100.00;97052.03;5053787;28;20044;-69
2021/11/25 02:48:54;;;;;;;35.10;19.23;;;1.40;99.90;;;0.07;100.00;97051.19;5071681;28;20055;-71
2021/11/25 02:51:25;;;;;;;29.40;16.98;;;1.30;99.90;;;-0.14;100.00;97056.47;5048872;28;20096;-70
2021/11/25 02:53:54;;;;;;;35.00;19.20;;;1.30;99.90;;;-0.09;100.00;97067.47;5039959;28;20149;-70
2021/11/25 02:56:25;;;;;;;37.70;20.85;;;1.20;99.90;;;-0.06;100.00;97060.66;5049203;28;20048;-69
2021/11/25 02:58:54;;;;;;;29.80;17.17;;;1.20;99.90;;;0.07;100.00;97052.88;5049052;28;20470;-68
2021/11/25 03:01:29;;;;;;;32.53;17.92;;;1.30;99.90;;;0.29;100.00;97051.81;5045717;28;20091;-70
2021/11/25 03:04:01;;;;;;;31.48;17.73;;;1.30;99.90;;;0.33;100.00;97048.38;5032166;28;20077;-70
2021/11/25 03:06:28;;;;;;;34.90;19.33;;;1.40;99.90;;;0.35;100.00;97050.91;5051357;28;20102;-70
2021/11/25 03:08:57;;;;;;;30.15;16.50;;;1.50;99.90;;;0.40;100.00;97046.59;5051049;28;20247;-69
2021/11/25 03:11:27;;;;;;;30.42;17.48;;;1.50;99.90;;;0.44;100.00;97039.75;5053581;28;20044;-69
2021/11/25 03:13:59;;;;;;;34.15;18.90;;;1.50;99.90;;;0.34;100.00;97042.41;5047128;28;20056;-71
2021/11/25 03:16:26;;;;;;;39.80;21.88;;;1.50;99.90;;;0.17;100.00;97042.56;5053867;28;20151;-69
2021/11/25 03:18:54;;;;;;;35.10;19.95;;;1.40;99.90;;;0.10;100.00;97043.50;5054095;28;20041;-69
2021/11/25 04:28:36;;;;;;;39.50;21.02;;;1.10;99.90;;;0.04;100.00;97019.75;5046660;28;20055;-71
2021/11/25 04:36:35;;;;;;;37.10;19.95;;;1.30;99.90;;;-0.05;100.00;97024.06;5054505;28;20048;-69
2021/11/25 04:39:06;;;;;;;36.50;19.58;;;1.30;99.90;;;0.06;100.00;97025.69;5038906;28;20045;-70
2021/11/25 04:41:35;;;;;;;35.80;19.60;;;1.30;99.90;;;0.12;100.00;97023.91;5042287;28;20141;-69
2021/11/25 04:44:02;;;;;;;37.17;20.75;;;1.40;99.90;;;0.10;100.00;97015.44;5047635;28;20128;-70
2021/11/25 04:46:29;;;;;;;37.78;19.55;;;1.40;99.90;;;0.17;100.00;97021.31;5045369;28;20069;-70
2021/11/25 04:48:56;;;;;;;43.60;21.88;;;1.50;99.90;;;0.15;100.00;97015.38;5052737;28;20052;-69
2021/11/25 04:51:23;;;;;;;41.63;21.58;;;1.40;99.90;;;0.07;100.00;97009.50;5049062;28;20083;-69
2021/11/25 04:53:50;;;;;;;41.83;21.13;;;1.30;99.90;;;0.02;100.00;97017.19;5057396;28;20048;-70
2021/11/25 04:56:17;;;;;;;42.80;20.90;;;1.30;99.90;;;0.06;100.00;97003.56;5032763;28;20538;-70
2021/11/25 04:58:44;;;;;;;39.63;20.77;;;1.30;99.90;;;-0.07;100.00;97012.19;5048686;28;20159;-70
2021/11/25 05:01:11;;;;;;;42.63;21.52;;;1.20;99.90;;;-0.03;100.00;97016.41;5050561;28;20135;-70
2021/11/25 05:03:38;;;;;;;39.88;22.48;;;1.30;99.90;;;0.05;100.00;97017.19;5047648;28;20080;-69
2021/11/25 05:06:07;;;;;;;39.00;21.60;;;1.30;99.90;;;0.11;100.00;97006.91;5057408;28;20051;-70
2021/11/25 05:08:34;;;;;;;39.35;21.42;;;1.30;99.90;;;0.04;100.00;97002.72;5049221;28;20127;-71
2021/11/25 05:11:01;;;;;;;38.03;20.15;;;1.30;99.90;;;-0.03;100.00;96999.38;5049190;28;20081;-70
2021/11/25 05:13:28;;;;;;;37.30;20.35;;;1.20;99.90;;;-0.10;100.00;96995.22;5054493;28;20183;-68
2021/11/25 05:15:55;;;;;;;40.50;21.42;;;1.20;99.90;;;-0.10;100.00;96990.09;5037843;28;20091;-71
2021/11/25 05:18:22;;;;;;;46.08;23.38;;;1.10;99.90;;;-0.13;100.00;96999.50;5049238;28;20045;-70
2021/11/25 05:20:49;;;;;;;37.53;19.85;;;1.10;99.90;;;-0.14;100.00;96997.81;5042077;28;20108;-71
2021/11/25 05:23:16;;;;;;;36.28;20.00;;;1.20;99.90;;;-0.16;100.00;97000.38;5069600;28;20048;-71
2021/11/25 05:25:43;;;;;;;40.40;21.25;;;1.20;99.90;;;-0.05;100.00;97008.75;5043777;28;20054;-70
2021/11/25 05:28:10;;;;;;;39.28;20.08;;;1.20;99.90;;;-0.02;100.00;97007.91;5059028;28;20521;-69
2021/11/25 05:30:37;;;;;;;40.22;21.75;;;1.20;99.90;;;-0.19;100.00;97002.94;5048163;28;20136;-70
2021/11/25 05:33:05;;;;;;;40.30;22.00;;;1.10;99.90;;;-0.20;100.00;96998.72;5057317;28;20091;-71
2021/11/25 05:35:32;;;;;;;40.78;20.88;;;1.10;99.90;;;-0.11;100.00;96992.69;5055692;28;20076;-71
2021/11/25 05:37:59;;;;;;;39.42;19.48;;;1.10;99.90;;;-0.07;100.00;96990.09;5064636;28;20127;-70
2021/11/25 05:40:26;;;;;;;39.63;19.85;;;1.10;99.90;;;-0.17;100.00;96980.81;5056957;28;20438;-72
2021/11/25 05:42:53;;;;;;;35.70;19.17;;;1.10;99.90;;;-0.05;100.00;96982.41;5050513;28;20464;-71
2021/11/25 05:45:21;;;;;;;41.58;21.63;;;1.20;99.90;;;0.04;100.00;96991.69;5027992;28;20092;-71
2021/11/25 05:47:49;;;;;;;35.90;19.40;;;1.20;99.90;;;-0.07;100.00;96994.31;5044241;28;20124;-72
2021/11/25 05:50:26;;;;;;;40.75;21.15;;;1.30;99.90;;;0.05;100.00;96986.56;5049931;28;20120;-71
2021/11/25 05:52:56;;;;;;;42.92;21.60;;;1.30;99.90;;;-0.01;100.00;96989.16;5028842;28;20053;-71
2021/11/25 05:55:26;;;;;;;39.47;20.52;;;1.20;99.90;;;-0.19;100.00;96980.00;5037149;28;20099;-71
2021/11/25 05:57:54;;;;;;;39.08;20.85;;;1.10;99.90;;;-0.18;100.00;96994.44;5027899;28;20049;-70
2021/11/25 06:00:22;;;;;;;36.92;20.20;;;1.00;99.90;;;-0.19;100.00;96990.19;5028958;28;20553;-72
2021/11/25 06:02:49;;;;;;;43.88;21.52;;;1.10;99.90;;;-0.22;100.00;96974.94;5027624;28;20538;-71
2021/11/25 06:05:23;;;;;;;36.95;19.40;;;1.00;99.90;;;-0.29;100.00;96984.34;5045044;28;20132;-71
2021/11/25 06:07:51;;;;;;;41.42;21.35;;;1.00;99.90;;;-0.16;100.00;96974.88;5051111;28;20053;-70
2021/11/25 06:10:22;;;;;;;42.03;20.15;;;1.10;99.90;;;-0.27;100.00;96969.03;5038148;28;20092;-71
2021/11/25 06:12:50;;;;;;;37.40;19.27;;;1.00;99.90;;;-0.24;100.00;96961.34;5071335;28;20131;-71
2021/11/25 06:15:17;;;;;;;36.88;19.55;;;1.00;99.90;;;-0.30;100.00;96961.41;5054201;28;20045;-71
2021/11/25 06:17:44;;;;;;;34.13;18.02;;;1.00;99.90;;;-0.27;100.00;96963.94;5045647;28;20136;-71
2021/11/25 06:20:14;;;;;;;34.58;18.25;;;1.00;99.90;;;-0.19;100.00;96966.41;5053041;28;20072;-71
2021/11/25 06:22:44;;;;;;;37.00;18.60;;;1.00;99.90;;;-0.28;100.00;96957.13;5057223;28;20084;-72
2021/11/25 06:25:13;;;;;;;38.47;18.35;;;1.00;99.90;;;-0.31;100.00;96964.81;5050866;28;20068;-71
2021/11/25 06:27:41;;;;;;;33.00;17.13;;;1.00;99.90;;;-0.25;100.00;96962.19;5050897;28;20087;-72
2021/11/25 06:30:11;;;;;;;33.67;17.85;;;1.10;99.90;;;-0.26;100.00;96965.63;5054554;28;20360;-71
2021/11/25 06:32:45;;;;;;;42.60;20.05;;;1.00;99.90;;;-0.31;100.00;96969.91;5047383;28;20045;-71
2021/11/25 06:35:15;;;;;;;35.55;19.17;;;0.90;99.90;;;-0.28;100.00;96969.88;5032764;28;20053;-69
2021/11/25 06:37:53;;;;;;;36.63;18.77;;;1.00;99.90;;;-0.21;100.00;96976.59;5033220;28;20249;-71
2021/11/25 06:40:31;;;;;;;35.10;18.25;;;1.00;99.90;;;-0.26;100.00;96966.44;5048994;28;20502;-71
2021/11/25 06:43:04;;;;;;;29.17;15.27;;;1.00;99.90;;;-0.05;100.00;96977.31;5059587;28;20048;-71
2021/11/25 06:45:31;;;;;;;30.58;15.23;;;1.10;99.90;;;-0.03;100.00;96973.03;5048651;28;20045;-72
2021/11/25 06:47:58;;;;;;;35.00;18.40;;;1.20;99.90;;;-0.01;100.00;96984.06;5053592;28;20078;-72
2021/11/25 06:50:26;;;;;;;33.85;18.00;;;1.20;99.90;;;0.07;100.00;96989.94;5066219;28;20132;-72
2021/11/25 06:52:53;;;;;;;30.85;16.17;;;1.30;99.90;;;-0.08;100.00;96990.09;5058653;28;20084;-72
2021/11/25 06:55:21;;;;;;;31.30;15.23;;;1.30;99.90;;;-0.09;100.00;96986.72;5049796;28;20444;-71
2021/11/25 06:57:51;;;;;;;31.60;15.68;;;1.30;99.90;;;-0.11;100.00;96982.50;5048906;28;20144;-71
2021/11/25 07:00:26;;;;;;;29.27;15.93;;;1.10;99.90;;;-0.14;100.00;96985.88;5061359;28;20132;-72
2021/11/25 07:02:54;;;;;;;33.38;16.60;;;1.10;99.90;;;-0.17;100.00;96988.47;5054076;28;20149;-70
2021/11/25 07:05:26;;;;;;;31.45;16.67;;;1.10;99.90;;;-0.07;100.00;96995.19;5049976;28;20041;-71
2021/11/25 07:07:54;;;;;;;34.33;17.73;;;1.10;99.90;;;-0.06;100.00;96996.03;5060997;28;20050;-72
2021/11/25 07:10:22;;;;;;;31.77;16.48;;;1.20;99.90;;;-0.08;100.00;96992.66;5050728;28;20115;-72
2021/11/25 07:12:49;;;;;;;33.65;17.27;;;1.20;99.90;;;-0.15;100.00;97004.63;5054845;28;20486;-72
2021/11/25 07:15:20;;;;;;;38.50;18.85;;;1.10;99.90;;;-0.21;100.00;97012.31;5052139;28;20138;-71
2021/11/25 07:17:47;;;;;;;29.58;16.27;;;1.00;99.90;;;-0.20;100.00;97019.13;5050551;28;20041;-71
2021/11/25 07:20:15;;;;;;;34.63;17.58;;;1.10;99.90;;;-0.10;100.00;97010.50;5029043;28;20049;-70
2021/11/25 07:22:43;;;;;;;31.10;16.30;;;1.10;99.90;;;-0.13;100.00;97012.25;5044201;28;20435;-71
2021/11/25 07:25:12;;;;;;;31.10;16.63;;;1.10;99.90;;;-0.19;100.00;97022.50;5048376;28;20072;-71
2021/11/25 07:27:43;;;;;;;28.25;15.68;;;1.10;99.90;;;-0.19;100.00;97019.97;5052078;28;20072;-72
2021/11/25 07:30:13;;;;;;;28.20;15.30;;;1.10;99.90;;;-0.17;100.00;97016.53;5066304;28;20539;-70
2021/11/25 07:32:40;;;;;;;31.40;16.65;;;1.10;99.90;;;-0.20;100.00;97003.81;5055883;28;20072;-69
2021/11/25 07:35:09;;;;;;;29.88;15.23;;;1.10;99.90;;;-0.15;100.00;97009.72;5047735;28;20052;-70
2021/11/25 07:37:36;;;;;;;30.45;18.08;;;1.20;99.90;;;-0.07;100.00;97015.59;5056901;28;20440;-70
2021/11/25 07:40:06;;;;;;;30.27;16.17;;;1.20;99.90;;;-0.06;100.00;97019.00;5055103;28;20123;-70
2021/11/25 07:42:33;;;;;;;28.65;15.45;;;1.20;99.90;;;-0.08;100.00;97016.44;5037195;28;20072;-71
2021/11/25 07:45:01;;;;;;;33.60;16.73;;;1.10;99.90;;;-0.11;100.00;97016.50;5050663;28;20049;-71
2021/11/25 07:47:32;;;;;;;32.60;15.80;;;1.10;99.90;;;-0.12;100.00;97008.84;5030900;28;20049;-71
2021/11/25 07:50:04;;;;;;;31.20;15.88;;;1.10;99.90;;;-0.13;100.00;97015.66;5051016;28;20116;-69
2021/11/25 07:52:31;;;;;;;32.45;15.68;;;1.10;99.90;;;-0.01;100.00;97020.63;5049899;28;20387;-71
2021/11/25 07:54:58;;;;;;;30.95;16.08;;;1.20;99.90;;;0.04;100.00;97035.06;5050409;28;20131;-71
2021/11/25 07:57:26;;;;;;;30.88;16.33;;;1.30;99.90;;;-0.04;100.00;97030.03;5040043;28;20073;-71
2021/11/25 07:59:54;;;;;;;33.92;16.65;;;1.30;99.90;;;0.01;100.00;97028.28;5029235;28;20462;-70
2021/11/25 08:02:21;;;;;;;35.78;17.63;;;1.30;99.90;;;-0.12;100.00;97029.25;5051367;28;20069;-70
2021/11/25 08:04:49;;;;;;;30.45;16.33;;;1.20;99.90;;;-0.13;100.00;97028.41;5039564;28;20513;-71
2021/11/25 08:07:16;;;;;;;32.30;16.02;;;1.20;99.90;;;-0.08;100.00;97029.22;5041997;28;20073;-71
2021/11/25 08:09:44;;;;;;;36.17;17.55;;;1.20;99.90;;;-0.20;100.00;97029.31;5049786;28;20091;-70
2021/11/25 08:12:11;;;;;;;32.65;17.27;;;1.10;99.90;;;-0.18;100.00;97014.84;5042752;28;20124;-70
2021/11/25 08:14:39;;;;;;;39.75;18.20;;;1.10;99.90;;;-0.24;100.00;97025.09;5031499;28;20394;-70
2021/11/25 08:17:09;;;;;;;32.47;16.75;;;1.10;99.90;;;-0.20;100.00;97039.53;5030714;28;20049;-71
2021/11/25 08:19:37;;;;;;;30.38;16.27;;;1.10;99.90;;;-0.15;100.00;97037.78;5036120;28;20520;-70
2021/11/25 08:22:05;;;;;;;32.88;16.95;;;1.20;99.90;;;0.05;100.00;97034.22;5031154;28;20113;-71
2021/11/25 08:24:32;;;;;;;31.65;15.60;;;1.30;99.90;;;0.06;100.00;97035.88;5031050;28;20502;-71
2021/11/25 08:27:00;;;;;;;36.38;17.38;;;1.30;99.90;;;0.07;100.00;97027.34;5043918;28;20041;-70
2021/11/25 08:29:27;;;;;;;31.98;16.65;;;1.30;99.90;;;-0.02;100.00;97024.06;5047302;28;20103;-70
2021/11/25 08:31:54;;;;;;;27.60;15.23;;;1.30;99.90;;;0.13;100.00;97022.19;5050196;28;20052;-71
2021/11/25 08:34:23;;;;;;;30.80;15.70;;;1.40;99.90;;;0.25;100.00;97019.53;5032812;28;20493;-71
2021/11/25 08:36:50;;;;;;;26.48;13.60;;;1.60;99.90;;;0.53;100.00;97025.16;5031135;28;20057;-71
2021/11/25 08:39:17;;;;;;;25.85;13.75;;;1.60;99.90;;;0.69;100.00;97027.56;5029517;28;20053;-70
2021/11/25 08:41:44;;;;;;;33.38;16.58;;;1.70;99.90;;;0.52;100.00;97030.28;5041401;28;20091;-71
2021/11/25 08:44:11;;;;;;;35.22;17.40;;;1.70;99.90;;;0.38;100.00;97030.44;5052065;28;20152;-69
2021/11/25 08:46:39;;;;;;;31.48;15.73;;;1.70;99.90;;;0.50;100.00;97035.44;5040875;28;20111;-70
2021/11/25 08:49:06;;;;;;;26.95;14.82;;;1.80;99.90;;;0.73;100.00;97042.81;5045839;28;20056;-70
2021/11/25 08:51:33;;;;;;;26.15;13.82;;;1.80;99.90;;;0.62;100.00;97048.03;5039971;28;20662;-70
2021/11/25 08:54:01;;;;;;;27.55;13.70;;;1.90;99.90;;;0.76;100.00;97053.00;5030050;28;20071;-70
2021/11/25 08:56:31;;;;;;;21.42;12.43;;;1.90;99.90;;;0.86;100.00;97053.72;5044662;28;20057;-70
2021/11/25 08:58:58;;;;;;;24.67;13.60;;;2.00;99.90;;;0.79;100.00;97052.94;5034735;28;20083;-69
2021/11/25 09:01:26;;;;;;;28.65;14.60;;;2.00;99.90;;;0.81;100.00;97043.56;5066739;28;20076;-70
2021/11/25 09:03:53;;;;;;;29.15;15.02;;;2.00;99.90;;;0.65;100.00;97029.28;5046160;28;20495;-71
2021/11/25 09:06:21;;;;;;;25.88;12.93;;;2.00;99.90;;;0.56;100.00;97027.69;5035232;28;20212;-71
2021/11/25 09:08:48;;;;;;;25.60;14.48;;;2.00;99.90;;;0.72;100.00;97018.13;5041124;28;20076;-71
2021/11/25 09:11:15;;;;;;;25.52;14.70;;;2.00;99.90;;;0.48;100.00;97021.84;5035970;28;20053;-70
2021/11/25 09:13:43;;;;;;;27.00;14.55;;;2.10;99.90;;;0.62;100.00;97019.94;5046335;28;20057;-71
2021/11/25 09:16:10;;;;;;;25.13;14.38;;;2.00;99.90;;;0.65;100.00;97023.34;5043380;28;20136;-71
2021/11/25 09:18:38;;;;;;;26.48;14.65;;;2.10;99.90;;;0.79;100.00;97026.56;5035689;28;20144;-71
2021/11/25 09:21:05;;;;;;;26.60;14.27;;;2.10;99.90;;;0.81;100.00;97020.56;5047880;28;20077;-70
2021/11/25 09:23:36;;;;;;;27.08;15.52;;;2.10;99.90;;;0.67;100.00;97012.22;5025057;28;20045;-70
2021/11/25 09:26:04;;;;;;;25.95;14.90;;;2.00;99.90;;;0.68;100.00;97013.91;5046286;28;20148;-71
2021/11/25 09:28:31;;;;;;;26.88;14.10;;;1.90;99.90;;;0.69;100.00;97007.94;5044716;28;20088;-70
2021/11/25 09:30:58;;;;;;;25.88;14.38;;;1.90;99.90;;;0.60;100.00;96996.13;5046263;28;20080;-71
2021/11/25 09:33:25;;;;;;;25.50;14.32;;;1.90;99.90;;;0.54;100.00;96998.75;5046651;28;20103;-70
2021/11/25 09:35:52;;;;;;;26.75;15.27;;;1.90;99.90;;;0.71;100.00;97006.22;5051160;28;20611;-71
2021/11/25 09:38:20;;;;;;;25.17;14.23;;;1.90;99.90;;;0.69;100.00;97004.56;5033677;28;20162;-70
2021/11/25 09:40:49;;;;;;;29.48;15.45;;;1.90;99.90;;;0.58;100.00;97000.41;5028655;28;20085;-71
2021/11/25 09:43:24;;;;;;;30.73;17.00;;;1.90;99.90;;;0.50;100.00;97004.78;5050062;28;20501;-71
2021/11/25 09:45:52;;;;;;;30.58;16.23;;;1.90;99.90;;;0.46;100.00;97009.91;5049253;28;20091;-71
2021/11/25 09:48:24;;;;;;;28.65;14.95;;;1.80;99.90;;;0.68;100.00;96997.75;5042904;28;20183;-70
2021/11/25 09:50:54;;;;;;;24.60;13.98;;;1.90;99.90;;;0.60;100.00;96991.03;5024003;28;20130;-71
2021/11/25 09:53:24;;;;;;;25.83;15.75;;;2.00;99.90;;;0.69;100.00;96994.34;5025205;28;20057;-69
2021/11/25 09:55:56;;;;;;;26.80;14.50;;;2.00;99.90;;;0.83;100.00;96983.06;5044303;28;20089;-71
2021/11/25 09:58:28;;;;;;;28.85;15.80;;;2.10;99.90;;;0.70;100.00;96988.34;5014998;28;20056;-71
2021/11/25 10:01:04;;;;;;;31.83;16.07;;;2.00;99.90;;;0.68;100.00;96987.53;5052572;28;20048;-70
2021/11/25 10:03:39;;;;;;;25.83;15.10;;;2.00;99.90;;;0.55;100.00;96990.25;5032912;28;20048;-70
2021/11/25 10:06:07;;;;;;;25.45;14.43;;;1.90;99.90;;;0.71;100.00;96982.38;5027914;28;20660;-71
2021/11/25 10:08:47;;;;;;;29.13;16.00;;;1.90;99.90;;;0.58;100.00;96987.66;5070093;28;20052;-71
2021/11/25 10:11:19;;;;;;;25.88;14.40;;;1.90;99.90;;;0.58;100.00;96994.47;5053465;28;20118;-71
2021/11/25 10:13:47;;;;;;;24.88;13.65;;;1.90;99.90;;;0.67;100.00;96996.06;5048471;28;20111;-71
2021/11/25 10:16:20;;;;;;;29.02;15.75;;;2.00;99.90;;;0.65;100.00;96978.19;5045697;28;20080;-70
2021/11/25 10:18:47;;;;;;;28.80;15.73;;;1.90;99.90;;;0.65;100.00;96983.31;5044458;28;20461;-71
2021/11/25 10:21:19;;;;;;;24.58;16.10;;;1.90;99.90;;;0.71;100.00;96985.78;5060892;28;20135;-69
2021/11/25 10:23:49;;;;;;;25.80;15.90;;;1.90;99.90;;;0.75;100.00;96990.00;5051219;28;20048;-70
2021/11/25 10:26:27;;;;;;;26.90;15.95;;;2.00;99.90;;;0.67;100.00;96984.13;5049124;28;20722;-70
2021/11/25 10:29:01;;;;;;;26.65;15.90;;;1.90;99.90;;;0.55;100.00;96986.84;5047208;28;20115;-71
2021/11/25 10:31:34;;;;;;;24.17;13.98;;;1.90;99.90;;;0.71;100.00;96980.69;5039839;28;20057;-70
2021/11/25 10:34:19;;;;;;;27.98;16.77;;;2.00;99.90;;;0.67;100.00;96984.13;5033635;28;20132;-71
2021/11/25 10:40:21;;;;;;;27.55;15.82;;;1.90;99.90;;;0.74;100.00;97002.78;5036839;28;20571;-71
2021/11/25 10:42:50;;;;;;;25.92;14.82;;;1.90;99.90;;;0.72;100.00;96999.41;5019908;28;20042;-72
2021/11/25 10:45:18;;;;;;;;;;;2.00;99.90;;;0.77;100.00;96998.47;5029072;28;20450;-72
2021/11/25 10:48:05;;;;;;;23.88;13.77;;;2.10;99.90;;;0.85;100.00;97000.09;5040813;28;20023;-71
2021/11/25 10:50:33;;;;;;;29.15;14.63;;;2.10;99.90;;;0.80;100.00;97005.28;5030560;28;20416;-71
2021/11/25 10:53:09;;;;;;;22.50;13.25;;;2.10;99.90;;;0.61;100.00;96997.81;5040272;28;20114;-71
2021/11/25 10:55:38;;;;;;;24.95;14.25;;;2.20;99.90;;;0.74;100.00;97003.63;5034889;28;20080;-72
2021/11/25 10:58:06;;;;;;;27.98;15.65;;;2.10;99.90;;;0.94;100.00;97005.09;5046068;28;20056;-69
2021/11/25 11:00:45;;;;;;;23.23;14.75;;;2.20;99.90;;;0.91;100.00;97003.38;5039869;28;20140;-71
2021/11/25 11:03:29;;;;;;;26.90;16.38;;;2.20;99.90;;;0.79;100.00;97006.13;5054862;28;20053;-72
2021/11/25 11:06:03;;;;;;;27.58;16.15;;;2.10;99.90;;;0.71;100.00;97008.78;5038401;28;20210;-72
2021/11/25 11:08:44;;;;;;;27.40;15.10;;;2.00;99.90;;;0.73;100.00;97009.63;5038828;28;20052;-72
2021/11/25 11:11:11;;;;;;;23.50;15.00;;;2.00;99.90;;;0.65;100.00;96998.63;5038413;28;20057;-70
2021/11/25 11:14:12;;;;;;;27.33;15.57;;;2.00;99.90;;;0.78;100.00;96995.06;5040040;28;20073;-70
2021/11/25 11:17:04;;;;;;;23.63;14.57;;;2.00;99.90;;;0.73;100.00;96996.84;5040927;28;20075;-72
2021/11/25 11:19:31;;;;;;;27.98;15.73;;;2.10;99.90;;;0.82;100.00;96993.28;5038605;28;20397;-72
2021/11/25 11:21:58;;;;;;;25.85;15.20;;;2.10;99.90;;;0.83;100.00;97002.66;5040280;28;20157;-72
2021/11/25 11:24:30;;;;;;;28.65;15.52;;;2.10;99.90;;;0.93;100.00;96998.25;5042328;28;20049;-71
2021/11/25 11:27:02;;;;;;;26.85;16.42;;;2.20;99.90;;;0.98;100.00;97002.47;5039828;28;20052;-71
2021/11/25 11:29:33;;;;;;;29.80;15.70;;;2.30;99.90;;;0.92;100.00;96996.59;5032090;28;20499;-72
2021/11/25 11:32:05;;;;;;;27.40;15.68;;;2.20;99.90;;;0.87;100.00;97003.44;5035049;28;20052;-72
2021/11/25 11:34:33;;;;;;;27.88;16.85;;;2.40;99.90;;;0.87;100.00;96998.34;5038551;28;20057;-72